sensor_id;sensor_type;location;lat;lon;timestamp;P1;durP1;ratioP1;P2;durP2;ratioP2
36593;SDS011;22603;47.900;8.146;2023-08-17T00:00:29;9.00;;;4.20;;
36593;SDS011;22603;47.900;8.146;2023-08-17T00:03:15;9.85;;;4.05;;
36593;SDS011;22603;47.900;8.146;2023-08-17T00:06:02;8.40;;;4.07;;
36593;SDS011;22603;47.900;8.146;2023-08-17T00:08:51;12.27;;;3.83;;
36593;SDS011;22603;47.900;8.146;2023-08-17T00:11:38;10.23;;;4.10;;
36593;SDS011;22603;47.900;8.146;2023-08-17T00:14:25;8.85;;;4.00;;
36593;SDS011;22603;47.900;8.146;2023-08-17T00:17:12;10.02;;;3.78;;
36593;SDS011;22603;47.900;8.146;2023-08-17T00:19:59;9.00;;;3.92;;
36593;SDS011;22603;47.900;8.146;2023-08-17T00:22:45;10.95;;;4.25;;
36593;SDS011;22603;47.900;8.146;2023-08-17T00:25:34;14.55;;;4.05;;
36593;SDS011;22603;47.900;8.146;2023-08-17T00:28:21;8.68;;;4.25;;
36593;SDS011;22603;47.900;8.146;2023-08-17T00:31:07;9.70;;;4.10;;
36593;SDS011;22603;47.900;8.146;2023-08-17T00:33:54;7.30;;;3.35;;
36593;SDS011;22603;47.900;8.146;2023-08-17T00:36:41;11.35;;;4.30;;
36593;SDS011;22603;47.900;8.146;2023-08-17T00:39:28;9.25;;;3.50;;
36593;SDS011;22603;47.900;8.146;2023-08-17T00:42:16;7.93;;;3.10;;
36593;SDS011;22603;47.900;8.146;2023-08-17T00:45:03;8.93;;;4.10;;
36593;SDS011;22603;47.900;8.146;2023-08-17T00:47:50;8.70;;;3.95;;
36593;SDS011;22603;47.900;8.146;2023-08-17T00:50:37;10.48;;;3.85;;
36593;SDS011;22603;47.900;8.146;2023-08-17T00:53:25;10.45;;;3.83;;
36593;SDS011;22603;47.900;8.146;2023-08-17T00:56:15;8.50;;;3.72;;
36593;SDS011;22603;47.900;8.146;2023-08-17T00:59:03;8.45;;;3.35;;
36593;SDS011;22603;47.900;8.146;2023-08-17T01:01:50;10.48;;;3.45;;
36593;SDS011;22603;47.900;8.146;2023-08-17T01:04:37;10.15;;;3.30;;
36593;SDS011;22603;47.900;8.146;2023-08-17T01:07:24;8.52;;;3.97;;
36593;SDS011;22603;47.900;8.146;2023-08-17T01:10:11;11.63;;;3.83;;
36593;SDS011;22603;47.900;8.146;2023-08-17T01:13:00;12.55;;;4.28;;
36593;SDS011;22603;47.900;8.146;2023-08-17T01:15:55;10.52;;;3.83;;
36593;SDS011;22603;47.900;8.146;2023-08-17T01:18:44;9.27;;;3.95;;
36593;SDS011;22603;47.900;8.146;2023-08-17T01:21:35;10.43;;;3.72;;
36593;SDS011;22603;47.900;8.146;2023-08-17T01:24:28;8.27;;;3.53;;
36593;SDS011;22603;47.900;8.146;2023-08-17T01:27:14;9.57;;;3.95;;
36593;SDS011;22603;47.900;8.146;2023-08-17T01:30:02;7.55;;;3.92;;
36593;SDS011;22603;47.900;8.146;2023-08-17T01:32:51;7.88;;;3.63;;
36593;SDS011;22603;47.900;8.146;2023-08-17T01:35:45;9.85;;;4.50;;
36593;SDS011;22603;47.900;8.146;2023-08-17T01:38:39;12.10;;;4.30;;
36593;SDS011;22603;47.900;8.146;2023-08-17T01:41:29;9.90;;;3.55;;
36593;SDS011;22603;47.900;8.146;2023-08-17T01:44:18;11.45;;;4.13;;
36593;SDS011;22603;47.900;8.146;2023-08-17T01:47:04;10.27;;;4.72;;
36593;SDS011;22603;47.900;8.146;2023-08-17T01:49:51;8.50;;;3.97;;
36593;SDS011;22603;47.900;8.146;2023-08-17T01:52:38;8.73;;;4.22;;
36593;SDS011;22603;47.900;8.146;2023-08-17T01:55:25;8.95;;;3.55;;
36593;SDS011;22603;47.900;8.146;2023-08-17T01:58:13;10.85;;;3.65;;
36593;SDS011;22603;47.900;8.146;2023-08-17T02:01:00;8.55;;;3.83;;
36593;SDS011;22603;47.900;8.146;2023-08-17T02:03:47;8.95;;;4.13;;
36593;SDS011;22603;47.900;8.146;2023-08-17T02:06:34;11.48;;;4.53;;
36593;SDS011;22603;47.900;8.146;2023-08-17T02:09:20;8.88;;;4.20;;
36593;SDS011;22603;47.900;8.146;2023-08-17T02:12:10;8.90;;;3.78;;
36593;SDS011;22603;47.900;8.146;2023-08-17T02:14:58;9.52;;;3.88;;
36593;SDS011;22603;47.900;8.146;2023-08-17T02:17:44;8.38;;;3.85;;
36593;SDS011;22603;47.900;8.146;2023-08-17T02:20:31;8.40;;;4.00;;
36593;SDS011;22603;47.900;8.146;2023-08-17T02:23:18;12.30;;;4.25;;
36593;SDS011;22603;47.900;8.146;2023-08-17T02:26:05;7.95;;;3.47;;
36593;SDS011;22603;47.900;8.146;2023-08-17T02:28:51;13.32;;;4.18;;
36593;SDS011;22603;47.900;8.146;2023-08-17T02:31:39;7.40;;;3.70;;
36593;SDS011;22603;47.900;8.146;2023-08-17T02:34:26;7.82;;;3.85;;
36593;SDS011;22603;47.900;8.146;2023-08-17T02:37:12;9.77;;;4.30;;
36593;SDS011;22603;47.900;8.146;2023-08-17T02:39:59;13.05;;;4.45;;
36593;SDS011;22603;47.900;8.146;2023-08-17T02:42:46;9.90;;;4.28;;
36593;SDS011;22603;47.900;8.146;2023-08-17T02:45:33;12.23;;;4.28;;
36593;SDS011;22603;47.900;8.146;2023-08-17T02:48:21;7.85;;;3.38;;
36593;SDS011;22603;47.900;8.146;2023-08-17T02:51:07;9.80;;;4.10;;
36593;SDS011;22603;47.900;8.146;2023-08-17T02:53:54;9.32;;;4.20;;
36593;SDS011;22603;47.900;8.146;2023-08-17T02:56:41;13.23;;;3.83;;
36593;SDS011;22603;47.900;8.146;2023-08-17T02:59:27;8.93;;;4.10;;
36593;SDS011;22603;47.900;8.146;2023-08-17T03:02:14;8.67;;;3.87;;
36593;SDS011;22603;47.900;8.146;2023-08-17T03:05:02;8.13;;;3.95;;
36593;SDS011;22603;47.900;8.146;2023-08-17T03:07:49;8.60;;;3.92;;
36593;SDS011;22603;47.900;8.146;2023-08-17T03:10:36;9.15;;;3.78;;
36593;SDS011;22603;47.900;8.146;2023-08-17T03:13:23;9.05;;;4.07;;
36593;SDS011;22603;47.900;8.146;2023-08-17T03:16:10;7.93;;;3.73;;
36593;SDS011;22603;47.900;8.146;2023-08-17T03:18:57;11.87;;;3.60;;
36593;SDS011;22603;47.900;8.146;2023-08-17T03:21:45;9.48;;;3.83;;
36593;SDS011;22603;47.900;8.146;2023-08-17T03:24:32;9.60;;;3.77;;
36593;SDS011;22603;47.900;8.146;2023-08-17T03:27:18;8.18;;;4.05;;
36593;SDS011;22603;47.900;8.146;2023-08-17T03:30:05;9.73;;;3.80;;
36593;SDS011;22603;47.900;8.146;2023-08-17T03:32:53;9.90;;;4.25;;
36593;SDS011;22603;47.900;8.146;2023-08-17T03:35:39;9.23;;;3.93;;
36593;SDS011;22603;47.900;8.146;2023-08-17T03:38:27;9.10;;;4.03;;
36593;SDS011;22603;47.900;8.146;2023-08-17T03:41:14;8.97;;;3.70;;
36593;SDS011;22603;47.900;8.146;2023-08-17T03:44:00;8.83;;;3.43;;
36593;SDS011;22603;47.900;8.146;2023-08-17T03:46:47;11.00;;;4.10;;
36593;SDS011;22603;47.900;8.146;2023-08-17T03:49:34;9.33;;;4.27;;
36593;SDS011;22603;47.900;8.146;2023-08-17T03:52:20;8.33;;;3.67;;
36593;SDS011;22603;47.900;8.146;2023-08-17T03:55:09;9.52;;;4.13;;
36593;SDS011;22603;47.900;8.146;2023-08-17T03:57:56;9.10;;;4.35;;
36593;SDS011;22603;47.900;8.146;2023-08-17T04:00:48;10.00;;;4.37;;
36593;SDS011;22603;47.900;8.146;2023-08-17T04:03:35;9.63;;;4.07;;
36593;SDS011;22603;47.900;8.146;2023-08-17T04:06:22;10.40;;;4.43;;
36593;SDS011;22603;47.900;8.146;2023-08-17T04:09:09;10.97;;;4.27;;
36593;SDS011;22603;47.900;8.146;2023-08-17T04:11:57;9.07;;;4.03;;
36593;SDS011;22603;47.900;8.146;2023-08-17T04:14:44;8.97;;;3.93;;
36593;SDS011;22603;47.900;8.146;2023-08-17T04:17:31;8.97;;;3.93;;
36593;SDS011;22603;47.900;8.146;2023-08-17T04:20:18;9.68;;;4.18;;
36593;SDS011;22603;47.900;8.146;2023-08-17T04:23:04;11.83;;;4.40;;
36593;SDS011;22603;47.900;8.146;2023-08-17T04:25:51;12.70;;;4.07;;
36593;SDS011;22603;47.900;8.146;2023-08-17T04:28:41;9.03;;;3.93;;
36593;SDS011;22603;47.900;8.146;2023-08-17T04:31:27;8.57;;;3.93;;
36593;SDS011;22603;47.900;8.146;2023-08-17T04:34:14;10.37;;;4.20;;
36593;SDS011;22603;47.900;8.146;2023-08-17T04:37:01;9.00;;;3.77;;
36593;SDS011;22603;47.900;8.146;2023-08-17T04:39:48;10.50;;;3.90;;
36593;SDS011;22603;47.900;8.146;2023-08-17T04:42:34;7.70;;;4.00;;
36593;SDS011;22603;47.900;8.146;2023-08-17T04:45:23;10.30;;;4.10;;
36593;SDS011;22603;47.900;8.146;2023-08-17T04:48:09;10.73;;;4.37;;
36593;SDS011;22603;47.900;8.146;2023-08-17T04:50:56;11.10;;;4.00;;
36593;SDS011;22603;47.900;8.146;2023-08-17T04:53:43;8.88;;;3.85;;
36593;SDS011;22603;47.900;8.146;2023-08-17T04:56:29;9.53;;;4.10;;
36593;SDS011;22603;47.900;8.146;2023-08-17T04:59:16;8.38;;;4.18;;
36593;SDS011;22603;47.900;8.146;2023-08-17T05:02:04;7.37;;;3.50;;
36593;SDS011;22603;47.900;8.146;2023-08-17T05:04:51;9.55;;;3.92;;
36593;SDS011;22603;47.900;8.146;2023-08-17T05:07:38;11.13;;;4.00;;
36593;SDS011;22603;47.900;8.146;2023-08-17T05:10:24;9.60;;;3.97;;
36593;SDS011;22603;47.900;8.146;2023-08-17T05:13:11;9.95;;;4.13;;
36593;SDS011;22603;47.900;8.146;2023-08-17T05:15:58;11.90;;;3.93;;
36593;SDS011;22603;47.900;8.146;2023-08-17T05:18:47;8.80;;;4.35;;
36593;SDS011;22603;47.900;8.146;2023-08-17T05:21:34;10.68;;;4.05;;
36593;SDS011;22603;47.900;8.146;2023-08-17T05:24:24;8.57;;;4.30;;
36593;SDS011;22603;47.900;8.146;2023-08-17T05:27:11;11.38;;;4.28;;
36593;SDS011;22603;47.900;8.146;2023-08-17T05:29:57;18.27;;;6.18;;
36593;SDS011;22603;47.900;8.146;2023-08-17T05:32:44;16.50;;;6.43;;
36593;SDS011;22603;47.900;8.146;2023-08-17T05:35:32;14.45;;;5.00;;
36593;SDS011;22603;47.900;8.146;2023-08-17T05:38:19;15.98;;;5.85;;
36593;SDS011;22603;47.900;8.146;2023-08-17T05:41:06;13.35;;;5.53;;
36593;SDS011;22603;47.900;8.146;2023-08-17T05:43:57;11.63;;;5.07;;
36593;SDS011;22603;47.900;8.146;2023-08-17T05:46:44;10.70;;;4.90;;
36593;SDS011;22603;47.900;8.146;2023-08-17T05:49:31;10.25;;;4.18;;
36593;SDS011;22603;47.900;8.146;2023-08-17T05:52:20;11.15;;;5.13;;
36593;SDS011;22603;47.900;8.146;2023-08-17T05:55:07;13.25;;;4.78;;
36593;SDS011;22603;47.900;8.146;2023-08-17T05:57:55;13.73;;;5.00;;
36593;SDS011;22603;47.900;8.146;2023-08-17T06:00:43;10.65;;;4.85;;
36593;SDS011;22603;47.900;8.146;2023-08-17T06:03:30;12.48;;;4.85;;
36593;SDS011;22603;47.900;8.146;2023-08-17T06:06:18;10.50;;;4.72;;
36593;SDS011;22603;47.900;8.146;2023-08-17T06:09:08;11.52;;;4.45;;
36593;SDS011;22603;47.900;8.146;2023-08-17T06:11:55;10.02;;;4.55;;
36593;SDS011;22603;47.900;8.146;2023-08-17T06:14:42;10.68;;;4.93;;
36593;SDS011;22603;47.900;8.146;2023-08-17T06:17:29;11.57;;;4.88;;
36593;SDS011;22603;47.900;8.146;2023-08-17T06:20:17;11.15;;;4.68;;
36593;SDS011;22603;47.900;8.146;2023-08-17T06:23:05;10.85;;;4.65;;
36593;SDS011;22603;47.900;8.146;2023-08-17T06:25:57;9.75;;;4.47;;
36593;SDS011;22603;47.900;8.146;2023-08-17T06:28:44;12.88;;;3.92;;
36593;SDS011;22603;47.900;8.146;2023-08-17T06:31:31;12.18;;;4.65;;
36593;SDS011;22603;47.900;8.146;2023-08-17T06:34:19;14.48;;;4.53;;
36593;SDS011;22603;47.900;8.146;2023-08-17T06:37:07;9.02;;;4.47;;
36593;SDS011;22603;47.900;8.146;2023-08-17T06:39:55;13.98;;;4.53;;
36593;SDS011;22603;47.900;8.146;2023-08-17T06:42:43;8.80;;;4.40;;
36593;SDS011;22603;47.900;8.146;2023-08-17T06:45:31;8.82;;;4.30;;
36593;SDS011;22603;47.900;8.146;2023-08-17T06:48:18;9.30;;;4.13;;
36593;SDS011;22603;47.900;8.146;2023-08-17T06:51:04;10.07;;;4.38;;
36593;SDS011;22603;47.900;8.146;2023-08-17T06:53:52;8.20;;;4.13;;
36593;SDS011;22603;47.900;8.146;2023-08-17T06:56:38;12.35;;;4.10;;
36593;SDS011;22603;47.900;8.146;2023-08-17T06:59:27;8.82;;;4.00;;
36593;SDS011;22603;47.900;8.146;2023-08-17T07:02:13;9.70;;;3.70;;
36593;SDS011;22603;47.900;8.146;2023-08-17T07:05:00;12.55;;;4.38;;
36593;SDS011;22603;47.900;8.146;2023-08-17T07:07:48;10.10;;;4.20;;
36593;SDS011;22603;47.900;8.146;2023-08-17T07:10:35;10.20;;;4.07;;
36593;SDS011;22603;47.900;8.146;2023-08-17T07:13:22;8.55;;;3.92;;
36593;SDS011;22603;47.900;8.146;2023-08-17T07:16:10;11.48;;;4.15;;
36593;SDS011;22603;47.900;8.146;2023-08-17T07:18:57;8.68;;;4.07;;
36593;SDS011;22603;47.900;8.146;2023-08-17T07:21:44;8.88;;;3.75;;
36593;SDS011;22603;47.900;8.146;2023-08-17T07:24:30;9.82;;;4.28;;
36593;SDS011;22603;47.900;8.146;2023-08-17T07:27:17;8.07;;;3.40;;
36593;SDS011;22603;47.900;8.146;2023-08-17T07:30:04;9.25;;;4.15;;
36593;SDS011;22603;47.900;8.146;2023-08-17T07:32:53;11.40;;;4.47;;
36593;SDS011;22603;47.900;8.146;2023-08-17T07:35:40;9.32;;;4.40;;
36593;SDS011;22603;47.900;8.146;2023-08-17T07:38:27;9.15;;;3.88;;
36593;SDS011;22603;47.900;8.146;2023-08-17T07:41:13;8.73;;;4.40;;
36593;SDS011;22603;47.900;8.146;2023-08-17T07:44:01;9.00;;;4.05;;
36593;SDS011;22603;47.900;8.146;2023-08-17T07:46:47;8.43;;;4.47;;
36593;SDS011;22603;47.900;8.146;2023-08-17T07:49:35;8.45;;;3.92;;
36593;SDS011;22603;47.900;8.146;2023-08-17T07:52:22;8.50;;;3.83;;
36593;SDS011;22603;47.900;8.146;2023-08-17T07:55:09;8.50;;;4.13;;
36593;SDS011;22603;47.900;8.146;2023-08-17T07:57:56;9.05;;;3.95;;
36593;SDS011;22603;47.900;8.146;2023-08-17T08:00:42;9.15;;;4.15;;
36593;SDS011;22603;47.900;8.146;2023-08-17T08:03:29;8.68;;;4.22;;
36593;SDS011;22603;47.900;8.146;2023-08-17T08:06:18;7.57;;;3.92;;
36593;SDS011;22603;47.900;8.146;2023-08-17T08:09:05;9.95;;;3.63;;
36593;SDS011;22603;47.900;8.146;2023-08-17T08:11:52;8.85;;;4.20;;
36593;SDS011;22603;47.900;8.146;2023-08-17T08:14:41;8.98;;;4.30;;
36593;SDS011;22603;47.900;8.146;2023-08-17T08:17:28;8.35;;;3.90;;
36593;SDS011;22603;47.900;8.146;2023-08-17T08:20:16;9.27;;;4.18;;
36593;SDS011;22603;47.900;8.146;2023-08-17T08:23:04;9.55;;;4.82;;
36593;SDS011;22603;47.900;8.146;2023-08-17T08:25:51;11.63;;;4.05;;
36593;SDS011;22603;47.900;8.146;2023-08-17T08:28:39;9.50;;;4.10;;
36593;SDS011;22603;47.900;8.146;2023-08-17T08:31:26;8.88;;;4.50;;
36593;SDS011;22603;47.900;8.146;2023-08-17T08:34:12;12.65;;;4.30;;
36593;SDS011;22603;47.900;8.146;2023-08-17T08:36:59;11.20;;;4.25;;
36593;SDS011;22603;47.900;8.146;2023-08-17T08:39:50;11.68;;;4.40;;
36593;SDS011;22603;47.900;8.146;2023-08-17T08:42:38;10.90;;;4.15;;
36593;SDS011;22603;47.900;8.146;2023-08-17T08:45:25;11.85;;;4.68;;
36593;SDS011;22603;47.900;8.146;2023-08-17T08:48:16;15.70;;;4.28;;
36593;SDS011;22603;47.900;8.146;2023-08-17T08:51:05;9.80;;;4.00;;
36593;SDS011;22603;47.900;8.146;2023-08-17T08:53:59;7.78;;;3.80;;
36593;SDS011;22603;47.900;8.146;2023-08-17T08:56:50;8.00;;;3.65;;
36593;SDS011;22603;47.900;8.146;2023-08-17T08:59:43;8.73;;;4.05;;
36593;SDS011;22603;47.900;8.146;2023-08-17T09:02:32;8.77;;;3.85;;
36593;SDS011;22603;47.900;8.146;2023-08-17T09:05:20;9.95;;;3.35;;
36593;SDS011;22603;47.900;8.146;2023-08-17T09:08:08;8.00;;;3.78;;
36593;SDS011;22603;47.900;8.146;2023-08-17T09:11:01;8.52;;;3.45;;
36593;SDS011;22603;47.900;8.146;2023-08-17T09:13:49;9.23;;;3.67;;
36593;SDS011;22603;47.900;8.146;2023-08-17T09:16:38;11.05;;;3.90;;
36593;SDS011;22603;47.900;8.146;2023-08-17T09:19:24;8.32;;;3.78;;
36593;SDS011;22603;47.900;8.146;2023-08-17T09:22:12;9.60;;;3.63;;
36593;SDS011;22603;47.900;8.146;2023-08-17T09:24:59;9.70;;;3.70;;
36593;SDS011;22603;47.900;8.146;2023-08-17T09:27:47;8.77;;;3.70;;
36593;SDS011;22603;47.900;8.146;2023-08-17T09:30:35;8.43;;;3.90;;
36593;SDS011;22603;47.900;8.146;2023-08-17T09:33:39;12.00;;;4.07;;
36593;SDS011;22603;47.900;8.146;2023-08-17T09:36:29;9.15;;;3.60;;
36593;SDS011;22603;47.900;8.146;2023-08-17T09:39:16;7.43;;;3.33;;
36593;SDS011;22603;47.900;8.146;2023-08-17T09:42:03;7.30;;;3.67;;
36593;SDS011;22603;47.900;8.146;2023-08-17T09:44:51;9.23;;;3.53;;
36593;SDS011;22603;47.900;8.146;2023-08-17T09:47:41;9.90;;;3.38;;
36593;SDS011;22603;47.900;8.146;2023-08-17T09:50:29;8.43;;;3.50;;
36593;SDS011;22603;47.900;8.146;2023-08-17T09:53:15;8.32;;;3.78;;
36593;SDS011;22603;47.900;8.146;2023-08-17T09:56:04;8.45;;;3.72;;
36593;SDS011;22603;47.900;8.146;2023-08-17T09:58:52;8.38;;;3.60;;
36593;SDS011;22603;47.900;8.146;2023-08-17T10:01:39;8.35;;;2.90;;
36593;SDS011;22603;47.900;8.146;2023-08-17T10:04:28;7.53;;;2.85;;
36593;SDS011;22603;47.900;8.146;2023-08-17T10:07:18;5.00;;;2.83;;
36593;SDS011;22603;47.900;8.146;2023-08-17T10:10:07;5.93;;;2.67;;
36593;SDS011;22603;47.900;8.146;2023-08-17T10:12:59;7.68;;;2.85;;
36593;SDS011;22603;47.900;8.146;2023-08-17T10:15:55;5.47;;;2.40;;
36593;SDS011;22603;47.900;8.146;2023-08-17T10:18:49;7.20;;;2.40;;
36593;SDS011;22603;47.900;8.146;2023-08-17T10:21:43;7.43;;;2.53;;
36593;SDS011;22603;47.900;8.146;2023-08-17T10:24:33;5.38;;;2.55;;
36593;SDS011;22603;47.900;8.146;2023-08-17T10:27:23;5.68;;;2.53;;
36593;SDS011;22603;47.900;8.146;2023-08-17T10:30:14;5.40;;;2.55;;
36593;SDS011;22603;47.900;8.146;2023-08-17T10:33:01;6.05;;;2.47;;
36593;SDS011;22603;47.900;8.146;2023-08-17T10:35:49;5.38;;;2.55;;
36593;SDS011;22603;47.900;8.146;2023-08-17T10:38:37;7.57;;;2.90;;
36593;SDS011;22603;47.900;8.146;2023-08-17T10:41:24;7.07;;;2.97;;
36593;SDS011;22603;47.900;8.146;2023-08-17T10:44:11;5.95;;;2.15;;
36593;SDS011;22603;47.900;8.146;2023-08-17T10:46:58;5.15;;;2.33;;
36593;SDS011;22603;47.900;8.146;2023-08-17T10:50:05;5.18;;;2.25;;
36593;SDS011;22603;47.900;8.146;2023-08-17T10:52:53;6.22;;;2.30;;
36593;SDS011;22603;47.900;8.146;2023-08-17T10:55:44;5.63;;;2.40;;
36593;SDS011;22603;47.900;8.146;2023-08-17T10:58:36;5.60;;;2.22;;
36593;SDS011;22603;47.900;8.146;2023-08-17T11:01:33;5.03;;;2.40;;
36593;SDS011;22603;47.900;8.146;2023-08-17T11:04:20;5.65;;;2.13;;
36593;SDS011;22603;47.900;8.146;2023-08-17T11:07:10;5.75;;;2.55;;
36593;SDS011;22603;47.900;8.146;2023-08-17T11:10:01;5.30;;;2.40;;
36593;SDS011;22603;47.900;8.146;2023-08-17T11:12:59;7.07;;;3.17;;
36593;SDS011;22603;47.900;8.146;2023-08-17T11:15:46;7.78;;;2.65;;
36593;SDS011;22603;47.900;8.146;2023-08-17T11:18:34;7.93;;;2.50;;
36593;SDS011;22603;47.900;8.146;2023-08-17T11:21:21;7.25;;;3.42;;
36593;SDS011;22603;47.900;8.146;2023-08-17T11:24:09;6.50;;;3.30;;
36593;SDS011;22603;47.900;8.146;2023-08-17T11:26:56;8.10;;;3.10;;
36593;SDS011;22603;47.900;8.146;2023-08-17T11:29:45;6.50;;;2.88;;
36593;SDS011;22603;47.900;8.146;2023-08-17T11:32:32;6.10;;;3.10;;
36593;SDS011;22603;47.900;8.146;2023-08-17T11:35:18;7.45;;;3.03;;
36593;SDS011;22603;47.900;8.146;2023-08-17T11:38:06;6.50;;;3.08;;
36593;SDS011;22603;47.900;8.146;2023-08-17T11:40:53;6.53;;;3.00;;
36593;SDS011;22603;47.900;8.146;2023-08-17T11:43:42;5.07;;;2.65;;
36593;SDS011;22603;47.900;8.146;2023-08-17T11:46:31;8.18;;;3.25;;
36593;SDS011;22603;47.900;8.146;2023-08-17T11:49:18;7.07;;;3.25;;
36593;SDS011;22603;47.900;8.146;2023-08-17T11:52:08;6.93;;;2.80;;
36593;SDS011;22603;47.900;8.146;2023-08-17T11:54:56;7.32;;;3.38;;
36593;SDS011;22603;47.900;8.146;2023-08-17T11:57:43;9.07;;;3.28;;
36593;SDS011;22603;47.900;8.146;2023-08-17T12:00:34;7.68;;;3.08;;
36593;SDS011;22603;47.900;8.146;2023-08-17T12:03:23;6.57;;;3.10;;
36593;SDS011;22603;47.900;8.146;2023-08-17T12:06:10;9.73;;;3.45;;
36593;SDS011;22603;47.900;8.146;2023-08-17T12:08:58;8.77;;;2.80;;
36593;SDS011;22603;47.900;8.146;2023-08-17T12:11:46;9.05;;;3.10;;
36593;SDS011;22603;47.900;8.146;2023-08-17T12:14:32;8.38;;;3.30;;
36593;SDS011;22603;47.900;8.146;2023-08-17T12:17:20;6.93;;;3.17;;
36593;SDS011;22603;47.900;8.146;2023-08-17T12:20:14;6.50;;;2.40;;
36593;SDS011;22603;47.900;8.146;2023-08-17T12:23:01;6.28;;;3.20;;
36593;SDS011;22603;47.900;8.146;2023-08-17T12:25:52;8.35;;;2.50;;
36593;SDS011;22603;47.900;8.146;2023-08-17T12:28:40;9.10;;;2.50;;
36593;SDS011;22603;47.900;8.146;2023-08-17T12:31:28;8.48;;;2.55;;
36593;SDS011;22603;47.900;8.146;2023-08-17T12:34:15;6.68;;;2.65;;
36593;SDS011;22603;47.900;8.146;2023-08-17T12:37:04;7.97;;;2.90;;
36593;SDS011;22603;47.900;8.146;2023-08-17T12:39:50;8.07;;;2.28;;
36593;SDS011;22603;47.900;8.146;2023-08-17T12:42:37;7.95;;;1.95;;
36593;SDS011;22603;47.900;8.146;2023-08-17T12:45:23;9.95;;;2.20;;
36593;SDS011;22603;47.900;8.146;2023-08-17T12:48:12;7.63;;;2.72;;
36593;SDS011;22603;47.900;8.146;2023-08-17T12:50:59;11.45;;;2.33;;
36593;SDS011;22603;47.900;8.146;2023-08-17T12:53:50;12.10;;;2.42;;
36593;SDS011;22603;47.900;8.146;2023-08-17T12:56:36;13.90;;;2.50;;
36593;SDS011;22603;47.900;8.146;2023-08-17T12:59:23;7.70;;;2.70;;
36593;SDS011;22603;47.900;8.146;2023-08-17T13:02:10;7.35;;;2.50;;
36593;SDS011;22603;47.900;8.146;2023-08-17T13:04:57;8.73;;;2.40;;
36593;SDS011;22603;47.900;8.146;2023-08-17T13:07:43;6.65;;;1.98;;
36593;SDS011;22603;47.900;8.146;2023-08-17T13:10:31;9.82;;;2.20;;
36593;SDS011;22603;47.900;8.146;2023-08-17T13:13:18;14.65;;;2.78;;
36593;SDS011;22603;47.900;8.146;2023-08-17T13:16:06;6.57;;;1.85;;
36593;SDS011;22603;47.900;8.146;2023-08-17T13:18:53;10.55;;;2.03;;
36593;SDS011;22603;47.900;8.146;2023-08-17T13:21:40;10.13;;;2.00;;
36593;SDS011;22603;47.900;8.146;2023-08-17T13:24:27;5.43;;;1.70;;
36593;SDS011;22603;47.900;8.146;2023-08-17T13:27:15;13.10;;;2.13;;
36593;SDS011;22603;47.900;8.146;2023-08-17T13:30:03;13.13;;;2.10;;
36593;SDS011;22603;47.900;8.146;2023-08-17T13:32:50;10.95;;;2.25;;
36593;SDS011;22603;47.900;8.146;2023-08-17T13:35:37;12.60;;;2.13;;
36593;SDS011;22603;47.900;8.146;2023-08-17T13:38:26;9.52;;;2.03;;
36593;SDS011;22603;47.900;8.146;2023-08-17T13:41:13;10.25;;;2.53;;
36593;SDS011;22603;47.900;8.146;2023-08-17T13:44:02;13.43;;;2.28;;
36593;SDS011;22603;47.900;8.146;2023-08-17T13:46:49;10.13;;;2.08;;
36593;SDS011;22603;47.900;8.146;2023-08-17T13:49:35;8.55;;;1.90;;
36593;SDS011;22603;47.900;8.146;2023-08-17T13:52:22;12.20;;;2.25;;
36593;SDS011;22603;47.900;8.146;2023-08-17T13:55:09;8.52;;;1.80;;
36593;SDS011;22603;47.900;8.146;2023-08-17T13:57:58;10.52;;;2.33;;
36593;SDS011;22603;47.900;8.146;2023-08-17T14:00:46;8.65;;;2.17;;
36593;SDS011;22603;47.900;8.146;2023-08-17T14:03:33;5.88;;;1.92;;
36593;SDS011;22603;47.900;8.146;2023-08-17T14:06:20;7.13;;;2.10;;
36593;SDS011;22603;47.900;8.146;2023-08-17T14:09:07;7.00;;;1.70;;
36593;SDS011;22603;47.900;8.146;2023-08-17T14:11:53;9.52;;;2.00;;
36593;SDS011;22603;47.900;8.146;2023-08-17T14:14:41;8.68;;;2.03;;
36593;SDS011;22603;47.900;8.146;2023-08-17T14:17:29;7.60;;;2.20;;
36593;SDS011;22603;47.900;8.146;2023-08-17T14:20:15;10.75;;;2.00;;
36593;SDS011;22603;47.900;8.146;2023-08-17T14:23:02;14.80;;;2.60;;
36593;SDS011;22603;47.900;8.146;2023-08-17T14:25:49;5.45;;;1.90;;
36593;SDS011;22603;47.900;8.146;2023-08-17T14:28:37;8.38;;;2.40;;
36593;SDS011;22603;47.900;8.146;2023-08-17T14:31:28;9.35;;;2.60;;
36593;SDS011;22603;47.900;8.146;2023-08-17T14:34:16;9.25;;;2.55;;
36593;SDS011;22603;47.900;8.146;2023-08-17T14:37:06;9.50;;;2.35;;
36593;SDS011;22603;47.900;8.146;2023-08-17T14:39:54;8.93;;;3.33;;
36593;SDS011;22603;47.900;8.146;2023-08-17T14:42:42;10.35;;;2.10;;
36593;SDS011;22603;47.900;8.146;2023-08-17T14:45:28;8.35;;;2.10;;
36593;SDS011;22603;47.900;8.146;2023-08-17T14:48:15;10.38;;;2.80;;
36593;SDS011;22603;47.900;8.146;2023-08-17T14:51:08;10.25;;;2.63;;
36593;SDS011;22603;47.900;8.146;2023-08-17T14:53:55;10.38;;;2.47;;
36593;SDS011;22603;47.900;8.146;2023-08-17T14:56:41;8.07;;;2.78;;
36593;SDS011;22603;47.900;8.146;2023-08-17T14:59:28;8.70;;;2.40;;
36593;SDS011;22603;47.900;8.146;2023-08-17T15:02:15;11.82;;;2.80;;
36593;SDS011;22603;47.900;8.146;2023-08-17T15:05:06;6.25;;;2.70;;
36593;SDS011;22603;47.900;8.146;2023-08-17T15:07:54;7.57;;;2.60;;
36593;SDS011;22603;47.900;8.146;2023-08-17T15:10:41;6.95;;;2.75;;
36593;SDS011;22603;47.900;8.146;2023-08-17T15:13:28;8.75;;;3.03;;
36593;SDS011;22603;47.900;8.146;2023-08-17T15:16:15;9.85;;;3.00;;
36593;SDS011;22603;47.900;8.146;2023-08-17T15:19:01;10.48;;;3.10;;
36593;SDS011;22603;47.900;8.146;2023-08-17T15:21:48;9.27;;;3.20;;
36593;SDS011;22603;47.900;8.146;2023-08-17T15:24:36;8.90;;;3.15;;
36593;SDS011;22603;47.900;8.146;2023-08-17T15:27:23;11.02;;;2.95;;
36593;SDS011;22603;47.900;8.146;2023-08-17T15:30:10;7.53;;;2.42;;
36593;SDS011;22603;47.900;8.146;2023-08-17T15:33:00;10.82;;;3.00;;
36593;SDS011;22603;47.900;8.146;2023-08-17T15:35:46;7.28;;;2.50;;
36593;SDS011;22603;47.900;8.146;2023-08-17T15:38:33;7.68;;;2.30;;
36593;SDS011;22603;47.900;8.146;2023-08-17T15:41:21;10.55;;;2.38;;
36593;SDS011;22603;47.900;8.146;2023-08-17T15:44:08;10.52;;;2.90;;
36593;SDS011;22603;47.900;8.146;2023-08-17T15:46:54;11.93;;;2.42;;
36593;SDS011;22603;47.900;8.146;2023-08-17T15:49:45;12.75;;;2.67;;
36593;SDS011;22603;47.900;8.146;2023-08-17T15:52:32;7.05;;;2.40;;
36593;SDS011;22603;47.900;8.146;2023-08-17T15:55:19;10.52;;;2.97;;
36593;SDS011;22603;47.900;8.146;2023-08-17T15:58:07;12.70;;;2.95;;
36593;SDS011;22603;47.900;8.146;2023-08-17T16:00:54;12.70;;;2.53;;
36593;SDS011;22603;47.900;8.146;2023-08-17T16:03:41;11.95;;;3.90;;
36593;SDS011;22603;47.900;8.146;2023-08-17T16:06:28;11.88;;;3.92;;
36593;SDS011;22603;47.900;8.146;2023-08-17T16:09:15;13.68;;;3.80;;
36593;SDS011;22603;47.900;8.146;2023-08-17T16:12:02;8.38;;;3.25;;
36593;SDS011;22603;47.900;8.146;2023-08-17T16:14:51;13.27;;;3.97;;
36593;SDS011;22603;47.900;8.146;2023-08-17T16:17:38;11.45;;;3.33;;
36593;SDS011;22603;47.900;8.146;2023-08-17T16:20:25;9.07;;;3.88;;
36593;SDS011;22603;47.900;8.146;2023-08-17T16:23:14;10.30;;;3.60;;
36593;SDS011;22603;47.900;8.146;2023-08-17T16:26:06;14.65;;;3.83;;
36593;SDS011;22603;47.900;8.146;2023-08-17T16:28:53;11.68;;;3.38;;
36593;SDS011;22603;47.900;8.146;2023-08-17T16:31:41;9.00;;;3.50;;
36593;SDS011;22603;47.900;8.146;2023-08-17T16:34:28;10.95;;;3.42;;
36593;SDS011;22603;47.900;8.146;2023-08-17T16:37:15;12.75;;;3.90;;
36593;SDS011;22603;47.900;8.146;2023-08-17T16:40:03;8.50;;;3.30;;
36593;SDS011;22603;47.900;8.146;2023-08-17T16:42:51;10.23;;;3.63;;
36593;SDS011;22603;47.900;8.146;2023-08-17T16:45:44;7.90;;;3.05;;